Time;durP1;ratioP1;P1;durP2;ratioP2;P2;SDS_P1;SDS_P2;PMS_P1;PMS_P2;Temp;Humidity;BMP_temperature;BMP_pressure;BME280_temperature;BME280_humidity;BME280_pressure;Samples;Min_cycle;Max_cycle;Signal;HPM_P1;HPM_P2
2023/08/10 00:02:21;;;;;;;15.00;12.80;;;;;;;13.68;81.06;100326.38;102632;1260;139242;-69
2023/08/10 00:04:48;;;;;;;16.00;12.10;;;;;;;13.65;81.13;100323.70;102714;1260;97829;-69
2023/08/10 00:07:15;;;;;;;17.80;13.00;;;;;;;13.64;81.37;100324.45;102599;1264;138812;-68
2023/08/10 00:09:42;;;;;;;16.90;13.20;;;;;;;13.62;81.38;100325.73;102672;1260;107073;-69
2023/08/10 00:12:10;;;;;;;16.20;13.20;;;;;;;13.59;81.51;100329.17;102746;1261;97782;-68
2023/08/10 00:14:37;;;;;;;19.30;13.90;;;;;;;13.58;81.73;100332.02;102563;1266;138786;-69
2023/08/10 00:17:04;;;;;;;19.10;14.00;;;;;;;13.56;81.67;100329.85;102700;1260;97815;-69
2023/08/10 00:19:31;;;;;;;17.20;14.10;;;;;;;13.53;81.68;100329.30;102594;1266;139044;-69
2023/08/10 00:21:58;;;;;;;17.40;13.90;;;;;;;13.50;81.99;100332.77;102700;1260;107848;-69
2023/08/10 00:24:25;;;;;;;19.10;15.40;;;;;;;13.47;81.99;100328.66;102685;1261;99899;-69
2023/08/10 00:26:52;;;;;;;18.30;14.30;;;;;;;13.44;81.97;100326.88;102610;1263;138741;-70
2023/08/10 00:29:19;;;;;;;18.50;14.90;;;;;;;13.43;82.24;100333.71;102600;1260;97756;-70
2023/08/10 00:31:46;;;;;;;17.30;14.90;;;;;;;13.40;82.32;100333.54;102575;1261;138745;-69
2023/08/10 00:34:14;;;;;;;21.50;15.40;;;;;;;13.36;82.37;100333.52;102687;1261;107667;-69
2023/08/10 00:36:42;;;;;;;17.60;14.00;;;;;;;13.33;82.47;100328.42;104185;1260;96373;-70
2023/08/10 00:39:09;;;;;;;19.30;15.20;;;;;;;13.29;82.61;100329.96;104191;1260;107618;-70
2023/08/10 00:41:36;;;;;;;17.10;15.10;;;;;;;13.28;82.66;100330.34;102713;1261;97793;-70
2023/08/10 00:44:07;;;;;;;18.90;14.70;;;;;;;13.26;82.78;100331.43;102569;1261;138807;-70
2023/08/10 00:46:34;;;;;;;18.60;15.60;;;;;;;13.24;82.91;100332.22;102628;1260;107083;-69
2023/08/10 00:49:04;;;;;;;20.00;15.90;;;;;;;13.21;82.91;100334.28;102704;1260;139430;-70
2023/08/10 00:51:32;;;;;;;18.00;15.00;;;;;;;13.19;83.02;100335.93;102602;1262;107678;-70
2023/08/10 00:54:02;;;;;;;16.70;14.90;;;;;;;13.17;83.17;100336.91;102658;1264;97831;-70
2023/08/10 00:56:32;;;;;;;20.70;15.70;;;;;;;13.15;83.19;100335.92;103311;1260;138608;-70
2023/08/10 00:58:59;;;;;;;18.30;14.60;;;;;;;13.14;83.25;100334.93;103311;1259;107786;-70
2023/08/10 01:01:27;;;;;;;20.00;15.60;;;;;;;13.13;83.37;100336.38;103267;1261;139080;-70
2023/08/10 01:03:54;;;;;;;20.70;14.40;;;;;;;13.11;83.32;100334.88;104020;1260;108376;-69
2023/08/10 01:06:30;;;;;;;18.10;14.40;;;;;;;13.11;83.35;100340.27;102650;1261;98037;-69
2023/08/10 01:09:09;;;;;;;17.10;14.80;;;;;;;13.11;83.39;100343.27;102556;1264;138615;-69
2023/08/10 01:12:03;;;;;;;19.10;14.50;;;;;;;13.09;83.42;100345.39;103453;1260;107152;-70
2023/08/10 01:14:37;;;;;;;16.80;14.40;;;;;;;13.08;83.50;100348.26;103453;1261;139570;-70
2023/08/10 01:17:19;;;;;;;17.80;14.00;;;;;;;13.06;83.63;100352.34;102626;1260;107983;-70
2023/08/10 01:19:49;;;;;;;18.20;13.40;;;;;;;13.06;83.64;100353.92;102555;1264;138844;-68
2023/08/10 01:22:25;;;;;;;16.00;13.70;;;;;;;13.06;83.78;100355.14;102715;1260;110845;-69
2023/08/10 01:25:01;;;;;;;16.30;14.50;;;;;;;13.06;83.71;100358.82;102508;1260;139558;-69
2023/08/10 01:27:30;;;;;;;18.00;15.60;;;;;;;13.04;83.73;100360.81;104188;1260;95710;-69
2023/08/10 01:29:58;;;;;;;17.90;15.10;;;;;;;13.01;83.95;100366.70;104170;1259;107427;-69
2023/08/10 01:32:26;;;;;;;20.00;14.70;;;;;;;12.98;83.97;100365.60;103995;1261;139880;-67
2023/08/10 01:34:53;;;;;;;15.80;14.10;;;;;;;12.94;84.04;100364.87;102803;1261;111309;-68
2023/08/10 01:37:22;;;;;;;19.70;14.10;;;;;;;12.90;84.25;100371.30;102538;1264;139076;-68
2023/08/10 01:39:50;;;;;;;17.30;14.50;;;;;;;12.88;84.38;100372.98;102654;1264;98293;-68
2023/08/10 01:42:17;;;;;;;17.80;15.30;;;;;;;12.86;84.56;100376.17;102649;1260;107023;-68
2023/08/10 01:44:45;;;;;;;17.80;15.20;;;;;;;12.86;84.70;100375.48;102524;1264;139047;-68
2023/08/10 01:47:20;;;;;;;17.30;15.40;;;;;;;12.83;84.68;100374.74;102661;1263;111311;-67
2023/08/10 01:49:53;;;;;;;17.60;15.50;;;;;;;12.82;84.88;100374.95;102583;1261;139629;-68
2023/08/10 01:52:23;;;;;;;20.30;16.40;;;;;;;12.80;84.94;100378.19;102501;1264;97804;-68
2023/08/10 01:54:51;;;;;;;20.10;16.40;;;;;;;12.77;84.92;100379.55;102499;1261;139023;-68
2023/08/10 01:57:19;;;;;;;17.00;15.20;;;;;;;12.74;85.09;100378.92;102637;1263;97798;-68
2023/08/10 01:59:47;;;;;;;19.10;15.60;;;;;;;12.70;85.23;100375.23;102632;1264;112487;-68
2023/08/10 02:02:14;;;;;;;20.10;16.00;;;;;;;12.68;85.14;100380.02;102529;1260;139227;-70
2023/08/10 02:04:41;;;;;;;21.60;16.00;;;;;;;12.66;85.39;100377.67;102635;1261;97737;-68
2023/08/10 02:07:08;;;;;;;18.50;15.30;;;;;;;12.65;85.47;100379.81;102431;1264;139151;-69
2023/08/10 02:09:37;;;;;;;18.90;14.80;;;;;;;12.63;85.58;100381.65;102590;1260;97916;-69
2023/08/10 02:12:04;;;;;;;20.50;15.80;;;;;;;12.60;85.53;100381.93;102689;1263;110824;-69
2023/08/10 02:14:34;;;;;;;16.70;14.30;;;;;;;12.57;85.80;100385.85;102543;1264;139032;-69
2023/08/10 02:17:01;;;;;;;19.10;14.80;;;;;;;12.55;85.90;100386.27;102685;1264;97747;-69
2023/08/10 02:19:28;;;;;;;21.70;14.30;;;;;;;12.52;86.01;100384.48;103741;1259;139910;-68
2023/08/10 02:21:58;;;;;;;17.60;14.40;;;;;;;12.49;86.14;100385.13;104176;1260;95907;-69
2023/08/10 02:24:25;;;;;;;17.40;13.40;;;;;;;12.48;86.25;100381.69;104214;1260;111078;-69
2023/08/10 02:26:52;;;;;;;18.20;14.10;;;;;;;12.47;86.32;100381.36;103980;1260;139970;-69
2023/08/10 02:29:19;;;;;;;16.40;13.10;;;;;;;12.48;86.47;100379.43;102573;1260;98083;-69
2023/08/10 02:31:47;;;;;;;16.20;14.00;;;;;;;12.49;86.51;100379.04;102631;1264;138608;-69
2023/08/10 02:34:33;;;;;;;;;;;;;;;12.49;86.55;100379.54;102786;1260;97791;-69
2023/08/10 02:37:03;;;;;;;15.80;13.40;;;;;;;12.47;86.60;100375.09;102702;1260;125166;-69
2023/08/10 02:39:30;;;;;;;16.00;14.00;;;;;;;12.46;86.69;100377.92;103617;1264;107575;-69
2023/08/10 02:41:58;;;;;;;15.60;13.90;;;;;;;12.46;86.76;100381.42;103412;1259;96300;-69
2023/08/10 02:44:25;;;;;;;22.20;13.80;;;;;;;12.45;86.74;100384.08;101930;1261;1003245;-69
2023/08/10 02:46:52;;;;;;;15.80;13.40;;;;;;;12.44;86.82;100382.89;102723;1261;97914;-69
2023/08/10 02:49:20;;;;;;;17.40;13.20;;;;;;;12.41;86.72;100382.48;103176;1260;138954;-69
2023/08/10 02:51:47;;;;;;;16.70;13.80;;;;;;;12.39;86.67;100390.05;104087;1262;108770;-69
2023/08/10 02:54:17;;;;;;;17.60;14.30;;;;;;;12.35;86.91;100392.09;104146;1261;96334;-70
2023/08/10 02:56:44;;;;;;;16.80;13.90;;;;;;;12.34;86.90;100397.02;103926;1261;138864;-70
2023/08/10 02:59:15;;;;;;;19.00;14.20;;;;;;;12.32;87.06;100398.30;102906;1261;97817;-69
2023/08/10 03:01:45;;;;;;;15.90;14.10;;;;;;;12.31;87.37;100400.44;102585;1264;138760;-69
2023/08/10 03:04:13;;;;;;;16.80;14.40;;;;;;;12.29;87.34;100402.27;102553;1264;107655;-68
2023/08/10 03:06:48;;;;;;;16.00;14.30;;;;;;;12.29;87.68;100408.91;102563;1260;139194;-70
2023/08/10 03:09:15;;;;;;;16.60;14.00;;;;;;;12.27;87.83;100412.11;102881;1261;108028;-69
2023/08/10 03:12:01;;;;;;;;;;;;;;;12.26;87.82;100415.64;102712;1261;97793;-69
2023/08/10 03:14:38;;;;;;;17.20;14.50;;;;;;;12.23;87.94;100413.86;103007;1261;125104;-69
2023/08/10 03:17:05;;;;;;;18.80;15.20;;;;;;;12.18;87.94;100416.96;104141;1260;108223;-69
2023/08/10 03:19:35;;;;;;;16.60;14.20;;;;;;;12.16;88.03;100420.17;102570;1264;138884;-68
2023/08/10 03:22:02;;;;;;;16.30;13.70;;;;;;;12.16;88.24;100419.48;103333;1261;108206;-69
2023/08/10 03:24:29;;;;;;;16.50;14.70;;;;;;;12.15;88.19;100421.42;102616;1261;98377;-69
2023/08/10 03:26:56;;;;;;;17.80;14.00;;;;;;;12.16;88.30;100423.48;102521;1267;138574;-69
2023/08/10 03:29:24;;;;;;;16.80;14.20;;;;;;;12.17;88.30;100421.54;102656;1262;107280;-68
2023/08/10 03:31:51;;;;;;;15.80;13.60;;;;;;;12.19;88.40;100425.83;102548;1265;139085;-69
2023/08/10 03:34:29;;;;;;;15.30;13.70;;;;;;;12.20;88.33;100425.41;102694;1264;108212;-69
2023/08/10 03:36:57;;;;;;;15.00;13.50;;;;;;;12.20;88.43;100424.20;102554;1262;142104;-69
2023/08/10 03:39:27;;;;;;;15.10;13.60;;;;;;;12.21;88.38;100421.56;102651;1265;109991;-68
2023/08/10 03:41:54;;;;;;;18.10;14.70;;;;;;;12.23;88.37;100429.20;103153;1260;107756;-69
2023/08/10 03:44:22;;;;;;;16.50;13.40;;;;;;;12.24;88.37;100426.69;103919;1263;140343;-69
2023/08/10 03:46:53;;;;;;;17.30;14.20;;;;;;;12.30;88.46;100431.55;102692;1261;108332;-69
2023/08/10 03:49:22;;;;;;;15.90;13.70;;;;;;;12.35;88.33;100434.14;102583;1261;140895;-69
2023/08/10 03:51:54;;;;;;;15.80;13.20;;;;;;;12.40;88.22;100438.48;102692;1261;111526;-69
2023/08/10 03:54:40;;;;;;;17.00;13.20;;;;;;;12.45;88.05;100438.48;102645;1260;108243;-69
2023/08/10 03:57:21;;;;;;;18.20;13.50;;;;;;;12.49;87.97;100438.50;102756;1260;97723;-69
2023/08/10 03:59:49;;;;;;;16.70;14.10;;;;;;;12.53;87.80;100438.86;104077;1260;107197;-69
2023/08/10 04:02:18;;;;;;;17.70;14.00;;;;;;;12.58;87.74;100434.50;103274;1261;1002538;-69
2023/08/10 04:04:45;;;;;;;16.20;13.70;;;;;;;12.64;87.52;100431.80;104167;1261;110989;-69
2023/08/10 04:07:15;;;;;;;14.90;12.90;;;;;;;12.70;87.39;100433.14;104084;1260;139705;-69
2023/08/10 04:09:47;;;;;;;16.50;13.30;;;;;;;12.77;87.15;100436.41;104112;1260;96024;-69
2023/08/10 04:12:15;;;;;;;14.40;12.70;;;;;;;12.83;87.02;100437.05;102606;1264;107411;-69
2023/08/10 04:14:42;;;;;;;16.70;13.10;;;;;;;12.90;86.85;100435.89;102471;1260;140204;-69
2023/08/10 04:17:09;;;;;;;15.80;13.00;;;;;;;12.98;86.70;100438.56;102621;1267;110631;-69
2023/08/10 04:19:36;;;;;;;16.40;13.20;;;;;;;13.05;86.43;100441.77;103409;1261;138999;-70
2023/08/10 04:22:03;;;;;;;18.00;12.90;;;;;;;13.13;86.29;100441.46;104204;1260;96256;-69
2023/08/10 04:24:31;;;;;;;14.30;12.60;;;;;;;13.20;86.01;100436.31;104205;1260;109010;-70
2023/08/10 04:26:58;;;;;;;18.20;12.80;;;;;;;13.27;85.92;100441.27;103723;1260;138970;-68
2023/08/10 04:29:35;;;;;;;14.10;12.50;;;;;;;13.38;85.79;100449.03;102698;1260;111611;-69
2023/08/10 04:32:02;;;;;;;24.70;13.10;;;;;;;13.49;85.43;100448.08;102511;1261;139518;-68
2023/08/10 04:34:32;;;;;;;17.10;11.50;;;;;;;13.59;85.08;100445.00;102695;1261;99489;-68
2023/08/10 04:36:59;;;;;;;13.50;11.50;;;;;;;13.69;84.83;100450.02;102529;1261;139612;-69
2023/08/10 04:39:27;;;;;;;15.90;12.40;;;;;;;13.79;84.51;100448.88;102598;1261;98052;-69
2023/08/10 04:41:54;;;;;;;16.90;12.20;;;;;;;13.92;84.31;100452.36;102646;1261;111877;-68
2023/08/10 04:44:21;;;;;;;14.40;11.50;;;;;;;14.04;83.83;100457.31;102481;1261;138986;-70
2023/08/10 04:46:48;;;;;;;14.20;12.20;;;;;;;14.13;83.48;100457.55;102684;1262;96656;-68
2023/08/10 04:49:16;;;;;;;16.60;12.10;;;;;;;14.22;82.98;100459.13;102566;1262;139538;-69
2023/08/10 04:51:43;;;;;;;18.20;13.70;;;;;;;14.30;82.64;100457.18;102685;1263;97844;-69
2023/08/10 04:54:18;;;;;;;21.00;14.10;;;;;;;14.37;82.21;100465.27;102661;1264;111264;-69
2023/08/10 04:56:45;;;;;;;18.20;12.00;;;;;;;14.45;82.02;100465.82;102570;1267;138977;-69
2023/08/10 04:59:12;;;;;;;19.20;11.90;;;;;;;14.55;81.76;100466.45;102697;1262;98009;-70
2023/08/10 05:01:39;;;;;;;16.00;12.10;;;;;;;14.62;81.30;100470.85;102559;1264;139556;-68
2023/08/10 05:04:07;;;;;;;15.20;11.60;;;;;;;14.68;81.00;100478.43;102729;1260;98443;-69
2023/08/10 05:06:36;;;;;;;16.70;11.90;;;;;;;14.78;80.88;100484.30;102620;1264;110931;-69
2023/08/10 05:09:04;;;;;;;17.00;11.00;;;;;;;14.94;80.73;100484.23;102525;1263;139006;-70
2023/08/10 05:11:31;;;;;;;13.80;10.90;;;;;;;15.16;80.37;100485.48;102685;1261;97843;-69
2023/08/10 05:13:59;;;;;;;14.10;11.70;;;;;;;15.52;79.90;100482.88;102559;1261;138706;-68
2023/08/10 05:16:28;;;;;;;13.60;10.30;;;;;;;16.06;78.73;100487.20;102669;1260;97701;-70
2023/08/10 05:18:56;;;;;;;11.60;10.10;;;;;;;16.78;77.67;100486.09;102531;1259;139022;-66
2023/08/10 05:21:23;;;;;;;10.80;9.40;;;;;;;17.52;75.95;100491.12;104167;1260;107811;-66
2023/08/10 05:23:51;;;;;;;12.30;8.50;;;;;;;18.35;74.98;100495.61;103899;1262;95830;-64
2023/08/10 05:26:19;;;;;;;11.40;8.70;;;;;;;19.49;72.87;100496.20;102665;1260;138772;-64
2023/08/10 05:28:55;;;;;;;12.00;7.90;;;;;;;20.80;70.73;100493.66;104200;1260;95983;-64
2023/08/10 05:31:22;;;;;;;11.40;7.80;;;;;;;22.21;67.39;100491.94;103633;1261;138102;-64
2023/08/10 05:33:52;;;;;;;11.10;7.40;;;;;;;23.59;64.92;100491.07;102761;1263;108424;-65
2023/08/10 05:36:19;;;;;;;9.90;8.20;;;;;;;25.02;61.65;100488.39;102752;1262;97729;-65
2023/08/10 05:38:46;;;;;;;12.80;7.20;;;;;;;26.40;58.36;100491.26;102604;1261;137870;-65
2023/08/10 05:41:14;;;;;;;13.60;6.60;;;;;;;27.70;55.48;100490.41;102746;1264;97855;-65
2023/08/10 05:43:41;;;;;;;9.90;7.50;;;;;;;28.83;52.97;100486.51;102633;1264;137966;-65
2023/08/10 05:46:08;;;;;;;8.70;6.00;;;;;;;29.96;50.60;100492.38;102697;1260;108530;-65
2023/08/10 05:48:36;;;;;;;8.60;5.80;;;;;;;30.52;48.17;100491.20;102765;1260;98275;-66
2023/08/10 05:51:03;;;;;;;7.50;6.40;;;;;;;31.11;46.66;100494.71;102598;1262;138068;-66
2023/08/10 05:53:31;;;;;;;9.40;6.80;;;;;;;31.42;44.91;100494.80;102695;1264;97897;-66
2023/08/10 05:55:58;;;;;;;7.20;6.10;;;;;;;31.20;43.87;100498.95;103960;1264;137811;-67
2023/08/10 05:58:25;;;;;;;9.10;6.40;;;;;;;30.91;43.04;100499.33;102654;1261;108510;-68
2023/08/10 06:00:52;;;;;;;6.60;5.10;;;;;;;31.35;42.73;100500.05;102663;1264;138008;-66
2023/08/10 06:03:19;;;;;;;7.50;5.30;;;;;;;32.32;41.95;100494.88;102717;1260;101134;-66
2023/08/10 06:05:49;;;;;;;7.70;5.20;;;;;;;33.27;40.42;100493.92;102699;1261;97710;-66
2023/08/10 06:08:16;;;;;;;7.90;5.80;;;;;;;33.87;39.47;100490.66;102672;1261;137771;-66
2023/08/10 06:10:43;;;;;;;8.20;6.40;;;;;;;34.17;38.28;100491.10;102711;1261;99506;-67
2023/08/10 06:13:11;;;;;;;5.70;5.00;;;;;;;34.10;37.39;100492.41;102866;1261;137944;-66
2023/08/10 06:15:38;;;;;;;6.70;6.00;;;;;;;34.00;36.88;100491.73;104209;1260;99449;-67
2023/08/10 06:18:05;;;;;;;8.10;4.80;;;;;;;34.10;36.41;100495.29;104151;1260;95989;-67
2023/08/10 06:20:33;;;;;;;9.10;5.40;;;;;;;34.27;36.04;100500.36;104026;1260;138320;-64
2023/08/10 06:23:00;;;;;;;8.10;5.60;;;;;;;34.30;35.33;100507.64;104150;1264;100009;-66
2023/08/10 06:25:30;;;;;;;12.10;5.90;;;;;;;34.31;35.01;100506.73;103924;1260;138107;-69
2023/08/10 06:27:58;;;;;;;5.70;5.20;;;;;;;34.42;34.78;100506.74;104225;1260;99354;-66
2023/08/10 06:30:26;;;;;;;9.00;5.00;;;;;;;34.72;34.04;100506.10;104010;1264;95866;-66
2023/08/10 06:32:53;;;;;;;10.80;7.30;;;;;;;35.00;33.33;100508.35;104097;1260;140428;-66
2023/08/10 06:35:22;;;;;;;7.80;5.40;;;;;;;35.43;32.83;100509.84;103529;1260;99124;-67
2023/08/10 06:37:50;;;;;;;8.00;4.90;;;;;;;36.03;32.40;100511.75;103154;1260;138285;-66
2023/08/10 06:40:17;;;;;;;6.50;4.40;;;;;;;36.66;31.92;100506.48;102712;1261;99714;-66
2023/08/10 06:42:45;;;;;;;7.60;4.20;;;;;;;37.07;31.27;100508.52;102704;1260;98387;-66
2023/08/10 06:45:18;;;;;;;8.80;4.60;;;;;;;37.18;30.85;100509.70;102718;1264;104375;-68
2023/08/10 06:47:45;;;;;;;6.80;4.80;;;;;;;37.19;30.49;100514.21;102661;1260;99865;-68
2023/08/10 06:50:12;;;;;;;7.00;4.70;;;;;;;37.15;30.06;100516.10;102540;1263;137740;-68
2023/08/10 06:52:41;;;;;;;8.40;4.70;;;;;;;37.06;29.76;100516.48;102603;1262;99978;-68
2023/08/10 06:55:12;;;;;;;9.90;4.80;;;;;;;36.88;29.53;100511.95;102543;1261;137843;-69
2023/08/10 06:57:39;;;;;;;10.80;6.60;;;;;;;36.70;29.30;100508.52;102600;1260;102755;-69
2023/08/10 07:00:19;;;;;;;9.10;5.10;;;;;;;37.12;29.05;100508.38;102635;1259;99856;-69
2023/08/10 07:02:50;;;;;;;6.50;4.10;;;;;;;37.98;28.86;100507.73;102606;1264;137881;-68
2023/08/10 07:05:18;;;;;;;9.70;4.70;;;;;;;39.08;28.05;100506.75;102725;1261;100736;-68
2023/08/10 07:07:44;;;;;;;8.50;4.10;;;;;;;39.87;26.54;100509.52;102582;1263;137825;-68
2023/08/10 07:10:12;;;;;;;6.90;4.10;;;;;;;40.36;26.17;100508.32;102569;1261;103593;-68
2023/08/10 07:12:40;;;;;;;8.70;3.90;;;;;;;40.75;25.51;100506.70;102678;1260;99018;-68
2023/08/10 07:15:10;;;;;;;6.40;3.80;;;;;;;41.21;25.20;100507.48;102531;1267;138548;-68
2023/08/10 07:17:38;;;;;;;8.60;6.80;;;;;;;41.81;24.65;100505.74;104139;1259;99003;-69
2023/08/10 07:20:08;;;;;;;6.10;3.70;;;;;;;42.37;24.21;100508.31;102875;1264;137712;-68
2023/08/10 07:22:35;;;;;;;6.80;4.10;;;;;;;42.81;23.58;100508.26;104181;1260;103860;-68
2023/08/10 07:25:07;;;;;;;6.40;4.00;;;;;;;43.13;23.20;100504.33;104076;1260;138652;-68
2023/08/10 07:27:35;;;;;;;6.80;3.80;;;;;;;43.18;22.64;100507.05;104195;1262;95959;-67
2023/08/10 07:30:03;;;;;;;8.00;3.70;;;;;;;42.83;22.53;100506.42;103946;1260;99619;-67
2023/08/10 07:32:30;;;;;;;7.80;3.60;;;;;;;42.56;22.11;100506.11;102425;1262;139154;-68
2023/08/10 07:34:58;;;;;;;8.00;3.80;;;;;;;42.08;21.93;100508.56;102529;1266;103894;-68
2023/08/10 07:37:25;;;;;;;5.50;3.20;;;;;;;41.64;22.22;100506.87;102519;1260;138511;-69
2023/08/10 07:39:53;;;;;;;10.50;4.10;;;;;;;41.66;22.08;100510.83;102644;1264;97800;-69
2023/08/10 07:42:20;;;;;;;10.70;3.80;;;;;;;41.39;21.78;100511.83;102651;1261;100468;-69
2023/08/10 07:44:47;;;;;;;8.60;4.40;;;;;;;41.18;21.31;100508.55;102532;1264;139864;-70
2023/08/10 07:47:14;;;;;;;9.30;4.10;;;;;;;41.04;21.67;100515.02;102591;1261;103801;-69
2023/08/10 07:49:42;;;;;;;15.90;4.40;;;;;;;41.04;21.99;100511.74;102557;1260;137852;-69
2023/08/10 07:52:09;;;;;;;9.70;3.80;;;;;;;41.24;21.98;100511.38;102693;1261;97904;-69
2023/08/10 07:54:36;;;;;;;7.00;3.70;;;;;;;41.27;21.86;100508.61;102644;1261;99140;-69
2023/08/10 07:57:05;;;;;;;7.00;3.60;;;;;;;40.93;22.01;100512.44;102602;1261;138043;-67
2023/08/10 07:59:32;;;;;;;6.20;3.30;;;;;;;40.64;21.46;100511.04;102734;1264;103603;-68
2023/08/10 08:02:04;;;;;;;7.00;3.40;;;;;;;40.40;21.31;100518.63;104067;1261;139281;-69
2023/08/10 08:04:32;;;;;;;4.40;2.90;;;;;;;40.40;21.60;100514.80;103231;1261;97854;-69
2023/08/10 08:06:59;;;;;;;8.10;3.00;;;;;;;40.78;21.58;100511.40;102531;1262;137863;-68
2023/08/10 08:09:29;;;;;;;7.50;3.20;;;;;;;40.88;21.24;100510.92;102614;1260;97815;-67
2023/08/10 08:11:59;;;;;;;10.40;5.10;;;;;;;40.82;21.25;100513.67;102581;1260;104356;-68
2023/08/10 08:14:27;;;;;;;7.60;3.10;;;;;;;40.84;21.23;100514.49;102558;1261;138052;-68
2023/08/10 08:16:57;;;;;;;9.10;3.90;;;;;;;40.69;20.83;100508.54;102739;1264;97775;-67
2023/08/10 08:19:25;;;;;;;7.10;3.40;;;;;;;40.86;21.10;100512.89;102619;1261;137915;-68
2023/08/10 08:21:53;;;;;;;7.90;2.60;;;;;;;40.94;20.84;100511.98;102755;1261;97801;-71
2023/08/10 08:24:21;;;;;;;7.20;2.70;;;;;;;40.88;20.09;100513.42;102723;1260;103468;-72
2023/08/10 08:26:49;;;;;;;4.20;2.50;;;;;;;40.60;20.34;100510.95;102471;1264;137913;-72
2023/08/10 08:29:17;;;;;;;6.30;2.60;;;;;;;40.49;20.29;100511.09;102662;1262;97821;-67
2023/08/10 08:31:53;;;;;;;5.80;2.50;;;;;;;40.45;20.59;100510.95;103203;1261;137754;-68
2023/08/10 08:34:25;;;;;;;8.00;2.80;;;;;;;40.26;20.90;100518.25;103908;1260;99110;-68
2023/08/10 08:36:53;;;;;;;8.40;2.80;;;;;;;40.11;20.73;100517.45;102585;1262;138780;-69
2023/08/10 08:39:24;;;;;;;4.90;2.20;;;;;;;39.95;20.39;100519.73;102358;1262;228251;-68
2023/08/10 08:41:53;;;;;;;6.10;2.20;;;;;;;39.99;20.55;100519.51;102690;1263;97792;-69
2023/08/10 08:44:21;;;;;;;5.00;2.20;;;;;;;39.90;20.41;100519.71;102467;1260;137882;-68
2023/08/10 08:46:51;;;;;;;6.10;2.20;;;;;;;38.88;20.42;100522.73;102578;1261;97870;-68
2023/08/10 08:49:19;;;;;;;7.80;2.20;;;;;;;37.36;21.04;100525.14;102595;1262;137789;-68
2023/08/10 08:51:49;;;;;;;5.20;2.20;;;;;;;36.05;22.02;100528.68;102723;1262;99891;-68
2023/08/10 08:54:16;;;;;;;8.10;2.50;;;;;;;34.96;22.77;100525.83;102702;1266;97898;-69
2023/08/10 08:56:45;;;;;;;7.40;2.50;;;;;;;34.46;23.25;100526.81;104036;1261;138183;-67
2023/08/10 08:59:12;;;;;;;5.70;2.40;;;;;;;34.48;23.56;100525.97;104179;1261;96314;-68
2023/08/10 09:01:40;;;;;;;5.30;2.10;;;;;;;34.63;23.72;100527.77;103547;1261;137685;-66
2023/08/10 09:04:08;;;;;;;5.90;2.30;;;;;;;34.88;23.71;100528.39;102767;1260;99816;-66
2023/08/10 09:06:36;;;;;;;6.20;2.40;;;;;;;35.10;24.19;100528.37;102744;1262;97793;-66
2023/08/10 09:09:03;;;;;;;6.30;2.30;;;;;;;35.48;24.39;100533.45;102621;1263;137730;-66
2023/08/10 09:11:30;;;;;;;4.60;2.00;;;;;;;35.63;24.00;100536.70;102797;1262;97821;-67
2023/08/10 09:14:10;;;;;;;5.70;2.20;;;;;;;35.32;24.12;100535.05;102675;1261;137982;-67
2023/08/10 09:16:39;;;;;;;7.90;1.90;;;;;;;34.87;24.07;100531.91;102656;1261;100120;-68
2023/08/10 09:19:10;;;;;;;11.30;2.50;;;;;;;34.05;23.80;100532.20;104066;1260;137927;-66
2023/08/10 09:21:38;;;;;;;9.40;3.10;;;;;;;33.18;24.12;100534.41;104168;1260;99254;-66
2023/08/10 09:24:09;;;;;;;6.70;2.30;;;;;;;32.88;24.39;100533.83;104190;1261;95861;-66
2023/08/10 09:26:39;;;;;;;7.30;2.50;;;;;;;32.46;24.24;100533.67;103008;1260;137669;-66
2023/08/10 09:29:06;;;;;;;10.30;3.20;;;;;;;31.70;24.71;100540.72;102956;1262;99367;-65
2023/08/10 09:31:41;;;;;;;5.40;2.10;;;;;;;31.22;25.63;100543.21;102663;1262;138021;-65
2023/08/10 09:34:13;;;;;;;17.30;4.70;;;;;;;30.97;25.94;100540.55;102737;1262;108797;-65
2023/08/10 09:36:41;;;;;;;4.80;2.20;;;;;;;30.92;26.44;100540.86;102721;1262;97729;-65
2023/08/10 09:39:17;;;;;;;5.90;2.20;;;;;;;30.98;25.99;100540.77;102693;1262;137945;-65
2023/08/10 09:41:44;;;;;;;11.30;2.90;;;;;;;31.49;26.56;100540.88;104179;1262;108098;-66
2023/08/10 09:44:12;;;;;;;14.20;3.60;;;;;;;32.23;26.46;100539.85;102833;1261;138060;-66
2023/08/10 09:46:39;;;;;;;16.10;5.00;;;;;;;33.08;26.25;100537.89;102686;1261;100059;-66
2023/08/10 09:49:07;;;;;;;8.40;2.10;;;;;;;33.86;25.40;100538.27;102657;1261;138680;-66
2023/08/10 09:51:39;;;;;;;10.90;4.50;;;;;;;34.43;24.66;100539.14;104215;1259;105679;-67
2023/08/10 09:54:07;;;;;;;3.70;1.70;;;;;;;34.88;24.25;100539.25;103413;1259;99836;-64
2023/08/10 09:56:37;;;;;;;4.40;2.10;;;;;;;35.22;23.62;100544.27;104185;1259;137934;-64
2023/08/10 09:59:05;;;;;;;4.00;1.80;;;;;;;35.68;23.58;100545.34;104168;1259;100208;-66
2023/08/10 10:01:33;;;;;;;3.20;1.40;;;;;;;35.86;22.18;100544.14;102744;1259;137989;-64
2023/08/10 10:04:01;;;;;;;4.80;1.60;;;;;;;35.71;21.90;100545.60;102783;1261;103627;-64
2023/08/10 10:06:29;;;;;;;4.30;1.30;;;;;;;35.63;21.96;100548.93;102782;1259;100675;-64
2023/08/10 10:08:59;;;;;;;4.70;1.80;;;;;;;35.81;21.98;100542.80;104132;1257;137704;-64
2023/08/10 10:11:30;;;;;;;2.90;1.50;;;;;;;36.13;21.59;100542.29;104248;1259;99304;-64
2023/08/10 10:13:57;;;;;;;4.00;1.40;;;;;;;36.24;21.09;100540.91;104174;1257;138216;-63
2023/08/10 10:16:26;;;;;;;5.40;2.80;;;;;;;36.08;21.49;100543.12;104299;1259;103389;-64
2023/08/10 10:18:53;;;;;;;2.80;1.20;;;;;;;36.07;21.21;100539.98;104147;1258;138621;-65
2023/08/10 10:21:21;;;;;;;3.60;1.50;;;;;;;35.88;21.21;100542.77;104153;1259;95852;-64
2023/08/10 10:23:52;;;;;;;2.30;1.20;;;;;;;35.90;21.37;100546.88;102918;1259;100596;-62
2023/08/10 10:26:22;;;;;;;3.80;1.30;;;;;;;35.97;21.00;100545.77;102786;1258;138048;-63
2023/08/10 10:29:11;;;;;;;3.50;1.40;;;;;;;35.99;21.33;100544.50;104275;1257;102581;-64
2023/08/10 10:31:39;;;;;;;7.70;1.30;;;;;;;36.16;21.33;100548.02;104172;1259;138384;-65
2023/08/10 10:34:06;;;;;;;3.40;1.60;;;;;;;36.22;21.01;100549.17;103853;1261;97792;-64
2023/08/10 10:36:35;;;;;;;5.90;1.60;;;;;;;36.39;21.15;100543.17;103155;1259;100347;-65
2023/08/10 10:39:08;;;;;;;6.20;2.20;;;;;;;36.56;20.44;100541.69;102696;1259;137873;-64
2023/08/10 10:41:37;;;;;;;4.90;1.70;;;;;;;36.37;20.27;100543.67;103730;1259;102679;-64
2023/08/10 10:44:06;;;;;;;3.60;1.40;;;;;;;36.14;20.81;100546.34;102774;1257;137957;-64
2023/08/10 10:46:40;;;;;;;3.70;1.40;;;;;;;36.10;21.29;100548.36;104220;1259;96511;-64
2023/08/10 10:49:12;;;;;;;5.00;1.20;;;;;;;36.12;21.39;100543.80;102826;1259;138524;-64
2023/08/10 10:51:54;;;;;;;4.70;1.40;;;;;;;36.14;21.30;100543.01;104258;1259;96069;-64
2023/08/10 10:54:22;;;;;;;4.20;1.50;;;;;;;36.10;21.07;100540.33;104351;1259;102384;-65
2023/08/10 10:56:49;;;;;;;3.40;1.30;;;;;;;36.02;21.18;100537.61;103739;1263;138712;-63
2023/08/10 10:59:19;;;;;;;4.70;1.50;;;;;;;35.62;21.20;100539.16;104283;1258;95930;-65
2023/08/10 11:01:49;;;;;;;3.50;1.40;;;;;;;35.14;21.19;100535.98;104122;1259;138228;-63
2023/08/10 11:04:16;;;;;;;4.60;1.70;;;;;;;34.94;21.24;100533.59;104316;1259;95863;-65
2023/08/10 11:06:43;;;;;;;5.00;1.50;;;;;;;34.70;21.21;100534.15;103929;1258;103554;-64
2023/08/10 11:09:13;;;;;;;3.00;1.40;;;;;;;34.47;21.13;100531.62;102673;1259;137708;-64
2023/08/10 11:11:46;;;;;;;2.20;1.30;;;;;;;34.05;21.32;100531.21;102848;1259;98004;-64
2023/08/10 11:14:13;;;;;;;3.20;1.30;;;;;;;33.73;21.26;100528.15;102720;1263;137669;-64